KZR918 LTFM-UACC
Flight info
| Callsign | KZR918 |
|---|---|
| Flight time | N/A |
| Altitude | 35000 |
| Route | VICEN1E/36 VICEN UT380 ASMAP UL333 LATGA UT363 GURBU UA4 ERZ UT309 KAR UT165 REBLO M11 MATAL T916 LEYLA N161 GASBI/K0833F370 N161 MASAV N55 OGANU P574 VETUB |
| Aircraft | A21N/M-SDE2E3FGHIRWXY/LB1 |
Departure
| Time | N/A |
|---|---|
| Airport | İstanbul Airport (LTFM) |
Arrival
| Time | 2026-05-01 13:51 |
|---|---|
| Airport | Nursultan Nazarbayev International Airport (UACC) |
| Time | Latitude | Longitude | Altitude | Speed | Heading |
|---|---|---|---|---|---|
| 2026-05-01 11:43 | 42.45960 | 50.51095 | 34992 ft | 505 kts | 48° |
| 2026-05-01 11:44 | 42.52453 | 50.62415 | 35020 ft | 505 kts | 48° |
| 2026-05-01 11:44 | 42.56754 | 50.69940 | 35039 ft | 505 kts | 49° |
| 2026-05-01 11:45 | 42.61022 | 50.77436 | 35050 ft | 505 kts | 49° |
| 2026-05-01 11:45 | 42.65306 | 50.84986 | 35051 ft | 505 kts | 49° |
| 2026-05-01 11:46 | 42.69589 | 50.92558 | 35054 ft | 505 kts | 49° |
| 2026-05-01 11:46 | 42.73864 | 51.00135 | 35059 ft | 503 kts | 49° |
| 2026-05-01 11:47 | 42.78103 | 51.07664 | 35060 ft | 501 kts | 48° |
| 2026-05-01 11:47 | 42.82302 | 51.15142 | 35059 ft | 499 kts | 48° |
| 2026-05-01 11:48 | 42.86537 | 51.22697 | 35058 ft | 499 kts | 48° |
| 2026-05-01 11:48 | 42.90716 | 51.30179 | 35057 ft | 500 kts | 48° |
| 2026-05-01 11:49 | 42.94959 | 51.37795 | 35056 ft | 507 kts | 47° |
| 2026-05-01 11:49 | 42.99239 | 51.45497 | 35056 ft | 513 kts | 46° |
| 2026-05-01 11:50 | 43.03576 | 51.53318 | 35056 ft | 520 kts | 46° |
| 2026-05-01 11:50 | 43.07937 | 51.61197 | 35056 ft | 523 kts | 46° |
| 2026-05-01 11:51 | 43.12336 | 51.69164 | 35055 ft | 524 kts | 47° |
| 2026-05-01 11:51 | 43.16716 | 51.77134 | 35059 ft | 523 kts | 46° |
| 2026-05-01 11:52 | 43.21077 | 51.85080 | 35057 ft | 523 kts | 47° |
| 2026-05-01 11:52 | 43.25431 | 51.93030 | 35065 ft | 524 kts | 47° |
| 2026-05-01 11:53 | 43.29809 | 52.01061 | 35083 ft | 523 kts | 47° |
| 2026-05-01 11:53 | 43.34159 | 52.09053 | 35105 ft | 524 kts | 47° |
| 2026-05-01 11:54 | 43.38493 | 52.17038 | 35125 ft | 524 kts | 47° |
| 2026-05-01 11:54 | 43.42816 | 52.25031 | 35137 ft | 523 kts | 46° |
| 2026-05-01 11:55 | 43.47163 | 52.33080 | 35140 ft | 523 kts | 47° |
| 2026-05-01 11:55 | 43.51496 | 52.41125 | 35141 ft | 524 kts | 47° |
| 2026-05-01 11:56 | 43.55808 | 52.49161 | 35141 ft | 523 kts | 46° |
| 2026-05-01 11:56 | 43.60109 | 52.57193 | 35140 ft | 523 kts | 46° |
| 2026-05-01 11:57 | 43.64424 | 52.65272 | 35139 ft | 523 kts | 47° |
| 2026-05-01 11:57 | 43.68716 | 52.73349 | 35140 ft | 524 kts | 47° |
| 2026-05-01 11:58 | 43.73006 | 52.81473 | 35142 ft | 524 kts | 47° |
| 2026-05-01 11:59 | 43.79410 | 52.93621 | 35143 ft | 519 kts | 48° |
| 2026-05-01 11:59 | 43.83617 | 53.01630 | 35143 ft | 514 kts | 48° |
| 2026-05-01 12:00 | 43.89881 | 53.13604 | 35141 ft | 511 kts | 48° |
| 2026-05-01 12:01 | 43.96120 | 53.25575 | 35142 ft | 512 kts | 48° |
| 2026-05-01 12:01 | 44.00285 | 53.33609 | 35141 ft | 510 kts | 48° |
| 2026-05-01 12:02 | 44.04423 | 53.41592 | 35137 ft | 511 kts | 48° |
| 2026-05-01 12:02 | 44.08563 | 53.49606 | 35088 ft | 512 kts | 48° |
| 2026-05-01 12:03 | 44.12695 | 53.57638 | 35057 ft | 511 kts | 48° |
| 2026-05-01 12:03 | 44.16853 | 53.65728 | 35041 ft | 512 kts | 49° |
| 2026-05-01 12:04 | 44.20971 | 53.73774 | 35036 ft | 512 kts | 49° |
| 2026-05-01 12:04 | 44.25116 | 53.81889 | 35033 ft | 513 kts | 49° |
| 2026-05-01 12:05 | 44.29229 | 53.89967 | 35033 ft | 512 kts | 49° |
| 2026-05-01 12:05 | 44.35400 | 54.02124 | 35033 ft | 512 kts | 49° |
| 2026-05-01 12:06 | 44.39513 | 54.10257 | 35034 ft | 513 kts | 49° |
| 2026-05-01 12:06 | 44.43604 | 54.18369 | 35035 ft | 512 kts | 49° |
| 2026-05-01 12:07 | 44.47690 | 54.26498 | 35035 ft | 512 kts | 49° |
| 2026-05-01 12:07 | 44.51777 | 54.34644 | 35034 ft | 513 kts | 49° |
| 2026-05-01 12:08 | 44.55784 | 54.42657 | 35035 ft | 513 kts | 49° |
| 2026-05-01 12:08 | 44.59871 | 54.50851 | 35033 ft | 512 kts | 49° |
| 2026-05-01 12:09 | 44.63962 | 54.58975 | 35033 ft | 510 kts | 46° |
| 2026-05-01 12:09 | 44.68556 | 54.66546 | 35030 ft | 504 kts | 39° |
| 2026-05-01 12:10 | 44.76217 | 54.76514 | 35035 ft | 499 kts | 34° |
| 2026-05-01 12:11 | 44.83947 | 54.86345 | 35033 ft | 500 kts | 35° |
| 2026-05-01 12:11 | 44.89073 | 54.92937 | 35033 ft | 501 kts | 35° |
| 2026-05-01 12:12 | 44.94214 | 54.99576 | 35034 ft | 500 kts | 35° |
| 2026-05-01 12:12 | 44.99313 | 55.06165 | 35034 ft | 502 kts | 36° |
| 2026-05-01 12:13 | 45.04481 | 55.12867 | 35033 ft | 504 kts | 37° |
| 2026-05-01 12:13 | 45.09684 | 55.19504 | 35034 ft | 500 kts | 34° |
| 2026-05-01 12:14 | 45.14999 | 55.25754 | 35035 ft | 497 kts | 34° |
| 2026-05-01 12:14 | 45.20348 | 55.31988 | 35035 ft | 497 kts | 34° |
| 2026-05-01 12:15 | 45.25642 | 55.38182 | 35034 ft | 496 kts | 34° |
| 2026-05-01 12:15 | 45.30969 | 55.44442 | 35034 ft | 497 kts | 34° |
| 2026-05-01 12:16 | 45.36272 | 55.50692 | 35034 ft | 497 kts | 34° |
| 2026-05-01 12:16 | 45.41591 | 55.56979 | 35034 ft | 496 kts | 34° |
| 2026-05-01 12:17 | 45.46886 | 55.63248 | 35034 ft | 497 kts | 34° |
| 2026-05-01 12:17 | 45.52192 | 55.69550 | 35054 ft | 498 kts | 35° |
| 2026-05-01 12:18 | 45.57496 | 55.75864 | 35073 ft | 499 kts | 34° |
| 2026-05-01 12:18 | 45.62817 | 55.82220 | 35080 ft | 498 kts | 34° |
| 2026-05-01 12:19 | 45.68094 | 55.88533 | 35084 ft | 498 kts | 35° |
| 2026-05-01 12:19 | 45.73394 | 55.94893 | 35087 ft | 498 kts | 34° |
| 2026-05-01 12:20 | 45.78707 | 56.01287 | 35086 ft | 497 kts | 34° |
| 2026-05-01 12:20 | 45.83978 | 56.07641 | 35086 ft | 498 kts | 34° |
| 2026-05-01 12:21 | 45.89258 | 56.14027 | 35088 ft | 498 kts | 34° |
| 2026-05-01 12:21 | 45.94537 | 56.20424 | 35085 ft | 498 kts | 34° |
| 2026-05-01 12:22 | 45.99828 | 56.26855 | 35076 ft | 498 kts | 34° |
| 2026-05-01 12:22 | 46.05087 | 56.33264 | 35052 ft | 498 kts | 34° |
| 2026-05-01 12:23 | 46.10383 | 56.39735 | 35021 ft | 496 kts | 34° |
| 2026-05-01 12:23 | 46.15643 | 56.46173 | 34998 ft | 498 kts | 34° |
| 2026-05-01 12:24 | 46.20879 | 56.52605 | 34987 ft | 498 kts | 34° |
| 2026-05-01 12:24 | 46.26169 | 56.59117 | 34983 ft | 498 kts | 34° |
| 2026-05-01 12:25 | 46.34047 | 56.68847 | 34978 ft | 498 kts | 35° |
| 2026-05-01 12:26 | 46.39294 | 56.75349 | 34980 ft | 498 kts | 35° |
| 2026-05-01 12:26 | 46.46881 | 56.85756 | 34980 ft | 504 kts | 44° |
| 2026-05-01 12:27 | 46.53055 | 56.98068 | 34981 ft | 509 kts | 56° |
| 2026-05-01 12:28 | 46.58412 | 57.11345 | 34980 ft | 506 kts | 57° |
| 2026-05-01 12:29 | 46.63726 | 57.24543 | 34979 ft | 504 kts | 57° |
| 2026-05-01 12:29 | 46.69042 | 57.37730 | 34980 ft | 504 kts | 57° |
| 2026-05-01 12:30 | 46.74328 | 57.50893 | 34979 ft | 504 kts | 57° |
| 2026-05-01 12:31 | 46.77874 | 57.59758 | 34980 ft | 504 kts | 57° |
| 2026-05-01 12:31 | 46.81379 | 57.68545 | 34978 ft | 504 kts | 58° |
| 2026-05-01 12:32 | 46.84911 | 57.77428 | 34980 ft | 504 kts | 58° |
| 2026-05-01 12:32 | 46.90177 | 57.90727 | 34980 ft | 505 kts | 58° |
| 2026-05-01 12:33 | 46.93673 | 57.99590 | 34981 ft | 503 kts | 59° |
| 2026-05-01 12:33 | 46.97166 | 58.08475 | 34981 ft | 501 kts | 59° |
| 2026-05-01 12:34 | 47.00611 | 58.17271 | 34981 ft | 499 kts | 59° |
| 2026-05-01 12:34 | 47.04040 | 58.26059 | 34980 ft | 496 kts | 60° |
| 2026-05-01 12:35 | 47.07442 | 58.34808 | 34979 ft | 495 kts | 60° |
| 2026-05-01 12:35 | 47.10862 | 58.43634 | 34978 ft | 495 kts | 60° |
| 2026-05-01 12:36 | 47.14247 | 58.52391 | 34980 ft | 495 kts | 60° |
| 2026-05-01 12:36 | 47.17633 | 58.61176 | 34980 ft | 495 kts | 60° |
| 2026-05-01 12:37 | 47.21027 | 58.70011 | 34979 ft | 495 kts | 60° |
| 2026-05-01 12:37 | 47.24398 | 58.78816 | 34979 ft | 495 kts | 60° |
| 2026-05-01 12:38 | 47.27767 | 58.87637 | 34979 ft | 495 kts | 61° |
| 2026-05-01 12:38 | 47.31133 | 58.96475 | 34980 ft | 496 kts | 62° |
| 2026-05-01 12:39 | 47.34477 | 59.05291 | 34980 ft | 496 kts | 62° |
| 2026-05-01 12:39 | 47.37845 | 59.14218 | 34980 ft | 496 kts | 62° |
| 2026-05-01 12:40 | 47.41172 | 59.23062 | 34980 ft | 495 kts | 62° |
| 2026-05-01 12:40 | 47.44513 | 59.31968 | 34980 ft | 496 kts | 62° |
| 2026-05-01 12:41 | 47.47861 | 59.40916 | 34980 ft | 496 kts | 62° |
| 2026-05-01 12:41 | 47.51178 | 59.49812 | 34980 ft | 496 kts | 62° |
| 2026-05-01 12:42 | 47.54489 | 59.58723 | 34980 ft | 496 kts | 62° |
| 2026-05-01 12:42 | 47.57805 | 59.67675 | 34979 ft | 496 kts | 63° |
| 2026-05-01 12:43 | 47.61117 | 59.76646 | 34979 ft | 495 kts | 63° |
| 2026-05-01 12:43 | 47.64415 | 59.85612 | 34980 ft | 496 kts | 63° |
| 2026-05-01 12:44 | 47.67704 | 59.94578 | 34980 ft | 495 kts | 63° |
| 2026-05-01 12:45 | 47.74255 | 60.12536 | 34980 ft | 496 kts | 63° |
| 2026-05-01 12:45 | 47.77523 | 60.21554 | 34980 ft | 495 kts | 63° |
| 2026-05-01 12:46 | 47.80786 | 60.30592 | 34980 ft | 495 kts | 63° |
| 2026-05-01 12:46 | 47.84024 | 60.39583 | 34979 ft | 495 kts | 63° |
| 2026-05-01 12:47 | 47.87276 | 60.48644 | 34979 ft | 496 kts | 63° |
| 2026-05-01 12:47 | 47.90514 | 60.57697 | 34979 ft | 495 kts | 63° |
| 2026-05-01 12:48 | 47.93743 | 60.66754 | 34978 ft | 495 kts | 64° |
| 2026-05-01 12:48 | 47.96953 | 60.75786 | 34980 ft | 495 kts | 64° |
| 2026-05-01 12:49 | 48.00163 | 60.84856 | 34980 ft | 495 kts | 64° |
| 2026-05-01 12:49 | 48.03379 | 60.93975 | 34980 ft | 495 kts | 64° |
| 2026-05-01 12:50 | 48.06583 | 61.03094 | 34978 ft | 496 kts | 64° |
| 2026-05-01 12:50 | 48.09781 | 61.12231 | 34978 ft | 499 kts | 63° |
| 2026-05-01 12:51 | 48.12988 | 61.21422 | 34978 ft | 502 kts | 63° |
| 2026-05-01 12:52 | 48.17828 | 61.35332 | 34980 ft | 503 kts | 63° |
| 2026-05-01 12:52 | 48.22644 | 61.49259 | 34980 ft | 503 kts | 63° |
| 2026-05-01 12:53 | 48.27461 | 61.63264 | 34980 ft | 503 kts | 63° |
| 2026-05-01 12:54 | 48.30630 | 61.72524 | 34979 ft | 503 kts | 64° |
| 2026-05-01 12:54 | 48.35401 | 61.86530 | 34979 ft | 503 kts | 64° |
| 2026-05-01 12:55 | 48.40170 | 62.00600 | 34979 ft | 503 kts | 64° |
| 2026-05-01 12:56 | 48.43319 | 62.09932 | 34980 ft | 503 kts | 64° |
| 2026-05-01 12:56 | 48.46475 | 62.19318 | 34980 ft | 503 kts | 64° |
| 2026-05-01 12:57 | 48.49617 | 62.28698 | 34980 ft | 503 kts | 64° |
| 2026-05-01 12:57 | 48.54317 | 62.42793 | 34980 ft | 503 kts | 64° |
| 2026-05-01 12:58 | 48.57439 | 62.52196 | 34980 ft | 503 kts | 64° |
| 2026-05-01 12:59 | 48.62128 | 62.66391 | 34978 ft | 503 kts | 65° |
| 2026-05-01 12:59 | 48.66524 | 62.80695 | 34980 ft | 502 kts | 67° |
| 2026-05-01 13:00 | 48.70811 | 62.95176 | 34980 ft | 502 kts | 66° |
| 2026-05-01 13:01 | 48.75108 | 63.09657 | 34979 ft | 504 kts | 66° |
| 2026-05-01 13:02 | 48.79407 | 63.24183 | 34980 ft | 504 kts | 66° |
| 2026-05-01 13:07 | 49.13114 | 64.29449 | 35032 ft | 505 kts | 63° |
| 2026-05-01 13:08 | 49.16245 | 64.39060 | 35033 ft | 505 kts | 63° |
| 2026-05-01 13:08 | 49.19359 | 64.48656 | 35033 ft | 505 kts | 63° |
| 2026-05-01 13:09 | 49.22464 | 64.58261 | 35033 ft | 505 kts | 63° |
| 2026-05-01 13:09 | 49.25570 | 64.67904 | 35031 ft | 505 kts | 64° |
| 2026-05-01 13:10 | 49.28676 | 64.77584 | 35032 ft | 505 kts | 64° |
| 2026-05-01 13:10 | 49.31762 | 64.87238 | 35033 ft | 505 kts | 64° |
| 2026-05-01 13:11 | 49.34822 | 64.96861 | 35032 ft | 504 kts | 64° |
| 2026-05-01 13:11 | 49.37736 | 65.06606 | 35033 ft | 502 kts | 66° |
| 2026-05-01 13:12 | 49.40593 | 65.16383 | 35033 ft | 502 kts | 66° |
| 2026-05-01 13:12 | 49.46146 | 65.35362 | 35033 ft | 502 kts | 66° |
| 2026-05-01 13:13 | 49.51783 | 65.54720 | 35033 ft | 502 kts | 66° |
| 2026-05-01 13:13 | 49.57316 | 65.73875 | 35032 ft | 502 kts | 66° |
| 2026-05-01 13:14 | 49.62760 | 65.92872 | 35033 ft | 502 kts | 66° |
| 2026-05-01 13:14 | 49.68245 | 66.12163 | 35033 ft | 502 kts | 66° |
| 2026-05-01 13:15 | 49.73745 | 66.31670 | 35032 ft | 502 kts | 66° |
| 2026-05-01 13:15 | 49.79370 | 66.51172 | 35032 ft | 502 kts | 65° |
| 2026-05-01 13:16 | 49.84826 | 66.70104 | 34939 ft | 502 kts | 66° |
| 2026-05-01 13:16 | 49.90340 | 66.89423 | 34771 ft | 504 kts | 66° |
| 2026-05-01 13:17 | 50.00590 | 67.28794 | 34685 ft | 501 kts | 70° |
| 2026-05-01 13:18 | 50.05879 | 67.52379 | 34684 ft | 500 kts | 70° |
| 2026-05-01 13:18 | 50.08164 | 67.62613 | 34688 ft | 500 kts | 70° |
| 2026-05-01 13:19 | 50.10432 | 67.72809 | 34684 ft | 500 kts | 71° |
| 2026-05-01 13:20 | 50.13830 | 67.88191 | 34681 ft | 501 kts | 71° |
| 2026-05-01 13:20 | 50.15930 | 67.97751 | 34679 ft | 501 kts | 71° |
| 2026-05-01 13:21 | 50.19300 | 68.13179 | 34679 ft | 501 kts | 71° |
| 2026-05-01 13:21 | 50.21531 | 68.23462 | 34679 ft | 501 kts | 71° |
| 2026-05-01 13:22 | 50.23872 | 68.33588 | 34679 ft | 501 kts | 68° |
| 2026-05-01 13:22 | 50.26275 | 68.43275 | 34679 ft | 501 kts | 68° |
| 2026-05-01 13:23 | 50.28795 | 68.53445 | 34679 ft | 501 kts | 68° |
| 2026-05-01 13:23 | 50.31294 | 68.63617 | 34679 ft | 501 kts | 68° |
| 2026-05-01 13:24 | 50.33781 | 68.73800 | 34678 ft | 501 kts | 69° |
| 2026-05-01 13:25 | 50.37485 | 68.89058 | 34678 ft | 501 kts | 69° |
| 2026-05-01 13:25 | 50.39951 | 68.99290 | 34680 ft | 498 kts | 68° |
| 2026-05-01 13:26 | 50.42384 | 69.09420 | 34680 ft | 493 kts | 68° |
| 2026-05-01 13:26 | 50.44787 | 69.19455 | 34679 ft | 490 kts | 68° |
| 2026-05-01 13:27 | 50.47165 | 69.29446 | 34679 ft | 490 kts | 68° |
| 2026-05-01 13:27 | 50.50723 | 69.44511 | 34678 ft | 490 kts | 68° |
| 2026-05-01 13:28 | 50.54266 | 69.59601 | 34678 ft | 490 kts | 68° |
| 2026-05-01 13:29 | 50.56609 | 69.69630 | 34539 ft | 491 kts | 69° |
| 2026-05-01 13:29 | 50.58964 | 69.79765 | 33245 ft | 492 kts | 69° |
| 2026-05-01 13:30 | 50.63642 | 70.00023 | 30160 ft | 498 kts | 69° |
| 2026-05-01 13:31 | 50.65989 | 70.10266 | 28510 ft | 501 kts | 69° |
| 2026-05-01 13:31 | 50.69631 | 70.25754 | 25897 ft | 503 kts | 68° |
| 2026-05-01 13:32 | 50.72250 | 70.35912 | 24528 ft | 494 kts | 67° |
| 2026-05-01 13:33 | 50.76046 | 70.50652 | 22852 ft | 476 kts | 67° |
| 2026-05-01 13:33 | 50.78497 | 70.60249 | 21727 ft | 466 kts | 68° |
| 2026-05-01 13:34 | 50.80889 | 70.69659 | 20584 ft | 457 kts | 68° |
| 2026-05-01 13:34 | 50.83225 | 70.78888 | 19448 ft | 447 kts | 68° |
| 2026-05-01 13:35 | 50.85511 | 70.87955 | 18327 ft | 439 kts | 69° |
| 2026-05-01 13:35 | 50.86634 | 70.92427 | 17836 ft | 433 kts | 69° |
| 2026-05-01 13:35 | 50.88802 | 71.01083 | 17355 ft | 417 kts | 69° |
| 2026-05-01 13:36 | 50.89894 | 71.05322 | 17074 ft | 410 kts | 64° |
| 2026-05-01 13:36 | 50.91535 | 71.08883 | 16736 ft | 399 kts | 40° |
| 2026-05-01 13:36 | 50.96373 | 71.12505 | 16035 ft | 379 kts | 14° |
| 2026-05-01 13:37 | 50.98904 | 71.13725 | 15483 ft | 378 kts | 14° |
| 2026-05-01 13:37 | 51.01396 | 71.14964 | 14983 ft | 376 kts | 15° |
| 2026-05-01 13:37 | 51.03851 | 71.16251 | 14512 ft | 373 kts | 16° |
| 2026-05-01 13:37 | 51.06298 | 71.17580 | 14049 ft | 369 kts | 17° |
| 2026-05-01 13:38 | 51.11091 | 71.20255 | 13149 ft | 362 kts | 17° |
| 2026-05-01 13:38 | 51.13457 | 71.21590 | 12705 ft | 359 kts | 17° |
| 2026-05-01 13:38 | 51.15798 | 71.22913 | 12264 ft | 356 kts | 17° |
| 2026-05-01 13:39 | 51.18114 | 71.24223 | 11826 ft | 352 kts | 17° |
| 2026-05-01 13:39 | 51.20394 | 71.25544 | 11387 ft | 350 kts | 21° |
| 2026-05-01 13:39 | 51.22503 | 71.27500 | 10933 ft | 350 kts | 37° |
| 2026-05-01 13:39 | 51.24210 | 71.30228 | 10507 ft | 348 kts | 49° |
| 2026-05-01 13:40 | 51.25709 | 71.33241 | 10308 ft | 337 kts | 52° |
| 2026-05-01 13:40 | 51.27100 | 71.36143 | 10177 ft | 325 kts | 52° |
| 2026-05-01 13:40 | 51.28467 | 71.38970 | 10046 ft | 313 kts | 51° |
| 2026-05-01 13:40 | 51.29784 | 71.41653 | 9791 ft | 307 kts | 51° |
| 2026-05-01 13:41 | 51.31100 | 71.44312 | 9431 ft | 306 kts | 51° |
| 2026-05-01 13:41 | 51.32428 | 71.46986 | 9082 ft | 303 kts | 51° |
| 2026-05-01 13:41 | 51.33713 | 71.49637 | 8728 ft | 301 kts | 57° |
| 2026-05-01 13:41 | 51.34421 | 71.52695 | 8344 ft | 294 kts | 89° |
| 2026-05-01 13:42 | 51.34067 | 71.55850 | 7996 ft | 283 kts | 119° |
| 2026-05-01 13:42 | 51.32912 | 71.58276 | 7671 ft | 274 kts | 139° |
| 2026-05-01 13:42 | 51.31513 | 71.60354 | 7340 ft | 271 kts | 140° |
| 2026-05-01 13:42 | 51.30136 | 71.62372 | 7011 ft | 269 kts | 140° |
| 2026-05-01 13:43 | 51.28783 | 71.64399 | 6682 ft | 267 kts | 139° |
| 2026-05-01 13:43 | 51.27456 | 71.66447 | 6354 ft | 266 kts | 138° |
| 2026-05-01 13:43 | 51.26147 | 71.68545 | 6021 ft | 264 kts | 137° |
| 2026-05-01 13:43 | 51.24863 | 71.70619 | 5690 ft | 262 kts | 137° |
| 2026-05-01 13:44 | 51.24269 | 71.71576 | 5537 ft | 261 kts | 137° |
| 2026-05-01 13:45 | 51.24074 | 71.71891 | 5490 ft | 261 kts | 137° |
| 2026-05-01 13:45 | 51.22762 | 71.73827 | 5342 ft | 248 kts | 150° |
| 2026-05-01 13:45 | 51.21197 | 71.74526 | 5211 ft | 233 kts | 186° |
| 2026-05-01 13:46 | 51.19654 | 71.73681 | 5217 ft | 233 kts | 211° |
| 2026-05-01 13:46 | 51.18386 | 71.72093 | 5068 ft | 232 kts | 223° |
| 2026-05-01 13:46 | 51.17282 | 71.70251 | 4895 ft | 226 kts | 226° |
| 2026-05-01 13:46 | 51.16230 | 71.68459 | 4677 ft | 219 kts | 225° |
| 2026-05-01 13:47 | 51.15202 | 71.66782 | 4469 ft | 202 kts | 223° |
| 2026-05-01 13:47 | 51.14232 | 71.65252 | 4160 ft | 190 kts | 223° |
| 2026-05-01 13:47 | 51.13311 | 71.63825 | 3877 ft | 178 kts | 222° |
| 2026-05-01 13:47 | 51.12465 | 71.62518 | 3656 ft | 163 kts | 222° |
| 2026-05-01 13:48 | 51.11687 | 71.61315 | 3420 ft | 147 kts | 221° |
| 2026-05-01 13:48 | 51.10963 | 71.60197 | 3213 ft | 143 kts | 221° |
| 2026-05-01 13:48 | 51.10248 | 71.59090 | 3031 ft | 143 kts | 221° |
| 2026-05-01 13:48 | 51.09527 | 71.57978 | 2851 ft | 143 kts | 221° |
| 2026-05-01 13:49 | 51.08826 | 71.56868 | 2672 ft | 143 kts | 223° |
| 2026-05-01 13:49 | 51.08122 | 71.55730 | 2475 ft | 143 kts | 223° |
| 2026-05-01 13:49 | 51.07400 | 71.54606 | 2291 ft | 143 kts | 221° |
| 2026-05-01 13:49 | 51.06681 | 71.53513 | 2107 ft | 143 kts | 221° |
| 2026-05-01 13:50 | 51.05964 | 71.52400 | 1900 ft | 143 kts | 221° |
| 2026-05-01 13:50 | 51.05256 | 71.51305 | 1709 ft | 142 kts | 222° |
| 2026-05-01 13:50 | 51.04552 | 71.50198 | 1522 ft | 142 kts | 222° |
| 2026-05-01 13:50 | 51.03851 | 71.49102 | 1338 ft | 142 kts | 222° |
| 2026-05-01 13:51 | 51.03144 | 71.47999 | 1189 ft | 139 kts | 222° |
| 2026-05-01 13:51 | 51.02519 | 71.47038 | 1175 ft | 105 kts | 224° |
| 2026-05-01 13:51 | 51.02134 | 71.46426 | 1175 ft | 56 kts | 224° |
| 2026-05-01 13:51 | 51.01944 | 71.46130 | 1175 ft | 33 kts | 224° |
| 2026-05-01 13:52 | 51.01786 | 71.45885 | 1175 ft | 26 kts | 224° |
| 2026-05-01 13:52 | 51.01690 | 71.45716 | 1175 ft | 13 kts | 258° |
| 2026-05-01 13:52 | 51.01738 | 71.45589 | 1175 ft | 14 kts | 315° |
| 2026-05-01 13:52 | 51.01796 | 71.45503 | 1175 ft | 10 kts | 336° |
| 2026-05-01 13:53 | 51.01860 | 71.45538 | 1175 ft | 10 kts | 42° |
| 2026-05-01 13:53 | 51.01975 | 71.45716 | 1175 ft | 13 kts | 45° |
| 2026-05-01 13:53 | 51.02043 | 71.45823 | 1175 ft | 13 kts | 45° |
| 2026-05-01 13:54 | 51.02111 | 71.45931 | 1175 ft | 13 kts | 43° |
| 2026-05-01 13:54 | 51.02181 | 71.46039 | 1175 ft | 13 kts | 46° |
| 2026-05-01 13:54 | 51.02250 | 71.46147 | 1175 ft | 13 kts | 45° |
| 2026-05-01 13:54 | 51.02319 | 71.46255 | 1175 ft | 14 kts | 45° |
| 2026-05-01 13:55 | 51.02389 | 71.46365 | 1175 ft | 14 kts | 44° |
| 2026-05-01 13:55 | 51.02459 | 71.46472 | 1175 ft | 14 kts | 45° |
| 2026-05-01 13:55 | 51.02529 | 71.46581 | 1175 ft | 14 kts | 45° |
| 2026-05-01 13:55 | 51.02599 | 71.46691 | 1175 ft | 13 kts | 43° |
| 2026-05-01 13:56 | 51.02679 | 71.46664 | 1175 ft | 10 kts | 315° |
| 2026-05-01 13:56 | 51.02707 | 71.46606 | 1175 ft | 4 kts | 286° |
| 2026-05-01 13:56 | 51.02715 | 71.46551 | 1175 ft | 5 kts | 297° |
| 2026-05-01 13:56 | 51.02745 | 71.46512 | 1175 ft | 6 kts | 325° |
| 2026-05-01 13:57 | 51.02771 | 71.46474 | 1175 ft | 3 kts | 317° |
| 2026-05-01 13:57 | 51.02773 | 71.46471 | 1175 ft | 0 kts | 316° |